createdAt,value
2019-04-10T00:00:39.361Z,13.50
2019-04-10T00:03:25.881Z,13.50
2019-04-10T00:05:50.551Z,13.60
2019-04-10T00:08:26.145Z,13.60
2019-04-10T00:11:00.987Z,13.50
2019-04-10T00:13:36.485Z,13.50
2019-04-10T00:16:11.990Z,13.50
2019-04-10T00:18:46.677Z,13.50
2019-04-10T00:21:21.351Z,13.50
2019-04-10T00:23:56.106Z,13.50
2019-04-10T00:26:31.702Z,13.40
2019-04-10T00:29:07.753Z,13.40
2019-04-10T00:31:42.704Z,13.50
2019-04-10T00:34:17.760Z,13.50
2019-04-10T00:36:53.356Z,13.60
2019-04-10T00:39:28.711Z,13.60
2019-04-10T00:42:03.569Z,13.70
2019-04-10T00:44:37.791Z,13.70
2019-04-10T00:47:12.874Z,13.70
2019-04-10T00:49:48.212Z,13.70
2019-04-10T00:52:24.188Z,13.50
2019-04-10T00:54:59.426Z,13.40
2019-04-10T00:57:34.287Z,13.30
2019-04-10T01:00:09.250Z,13.30
2019-04-10T01:02:44.788Z,13.30
2019-04-10T01:05:19.823Z,13.30
2019-04-10T01:07:54.641Z,13.20
2019-04-10T01:10:30.384Z,13.20
2019-04-10T01:13:05.296Z,13.30
2019-04-10T01:15:40.047Z,13.30
2019-04-10T01:18:15.073Z,13.30
2019-04-10T01:20:50.163Z,13.40
2019-04-10T01:23:25.002Z,13.30
2019-04-10T01:25:59.700Z,13.30
2019-04-10T01:28:34.518Z,13.30
2019-04-10T01:31:09.218Z,13.30
2019-04-10T01:33:46.103Z,13.30
2019-04-10T01:36:22.789Z,13.30
2019-04-10T01:38:57.882Z,13.40
2019-04-10T01:41:32.845Z,13.40
2019-04-10T01:44:07.697Z,13.40
2019-04-10T01:46:42.452Z,13.40
2019-04-10T01:49:17.658Z,13.30
2019-04-10T01:51:52.634Z,13.20
2019-04-10T01:54:27.365Z,13.30
2019-04-10T01:57:02.092Z,13.30
2019-04-10T01:59:38.354Z,13.30
2019-04-10T02:02:14.829Z,13.40
2019-04-10T02:04:52.131Z,13.30
2019-04-10T02:07:26.774Z,13.40
2019-04-10T02:10:01.742Z,13.30
2019-04-10T02:12:37.607Z,13.30
2019-04-10T02:15:15.590Z,13.20
2019-04-10T02:17:50.243Z,13.20
2019-04-10T02:20:25.058Z,13.00
2019-04-10T02:22:59.663Z,12.90
2019-04-10T02:25:36.931Z,13.00
2019-04-10T02:28:11.000Z,13.00
2019-04-10T02:30:46.089Z,12.90
2019-04-10T02:33:20.687Z,13.00
2019-04-10T02:35:57.001Z,13.00
2019-04-10T02:39:04.620Z,13.10
2019-04-10T02:41:28.022Z,13.10
2019-04-10T02:44:04.826Z,13.10
2019-04-10T02:46:41.269Z,13.10
2019-04-10T02:49:16.422Z,13.10
2019-04-10T02:51:51.938Z,13.10
2019-04-10T02:54:27.104Z,13.10
2019-04-10T02:57:03.494Z,13.10
2019-04-10T02:59:39.650Z,13.00
2019-04-10T03:02:16.188Z,13.00
2019-04-10T03:04:51.125Z,12.90
2019-04-10T03:07:26.228Z,12.90
2019-04-10T03:10:12.980Z,12.90
2019-04-10T03:12:38.731Z,13.00
2019-04-10T03:15:15.041Z,13.00
2019-04-10T03:17:50.447Z,13.00
2019-04-10T03:20:25.270Z,13.00
2019-04-10T03:23:00.918Z,13.10
2019-04-10T03:25:37.092Z,13.10
2019-04-10T03:28:11.948Z,13.10
2019-04-10T03:30:48.733Z,13.10
2019-04-10T03:33:29.677Z,13.10
2019-04-10T03:36:03.175Z,13.10
2019-04-10T03:38:49.418Z,13.10
2019-04-10T03:41:14.201Z,13.10
2019-04-10T03:43:48.869Z,13.20
2019-04-10T03:46:23.585Z,13.10
2019-04-10T03:48:58.290Z,13.00
2019-04-10T03:51:34.291Z,13.00
2019-04-10T03:54:09.114Z,12.80
2019-04-10T03:56:43.946Z,12.70
2019-04-10T03:59:20.182Z,12.70
2019-04-10T04:01:55.461Z,12.80
2019-04-10T04:04:31.240Z,12.80
2019-04-10T04:07:07.051Z,12.80
2019-04-10T04:09:41.946Z,12.80
2019-04-10T04:12:16.616Z,12.70
2019-04-10T04:14:51.340Z,12.70
2019-04-10T04:17:26.275Z,12.70
2019-04-10T04:20:02.421Z,12.70
2019-04-10T04:22:37.287Z,12.70
2019-04-10T04:25:12.860Z,12.70
2019-04-10T04:27:47.758Z,12.70
2019-04-10T04:30:22.565Z,12.70
2019-04-10T04:32:58.036Z,12.70
2019-04-10T04:35:32.925Z,12.70
2019-04-10T04:38:07.540Z,12.80
2019-04-10T04:40:42.346Z,12.70
2019-04-10T04:43:17.034Z,12.80
2019-04-10T04:45:52.075Z,12.70
2019-04-10T04:48:28.431Z,12.70
2019-04-10T04:51:03.825Z,12.60
2019-04-10T04:53:38.596Z,12.70
2019-04-10T04:56:13.259Z,12.70
2019-04-10T04:58:47.953Z,12.70
2019-04-10T05:01:24.249Z,12.70
2019-04-10T05:04:00.569Z,12.80
2019-04-10T05:06:35.221Z,12.80
2019-04-10T05:09:09.916Z,13.00
2019-04-10T05:11:44.826Z,12.90
2019-04-10T05:14:19.637Z,13.10
2019-04-10T05:16:55.376Z,12.90
2019-04-10T05:19:30.198Z,12.90
2019-04-10T05:22:05.902Z,13.00
2019-04-10T05:24:40.786Z,13.20
2019-04-10T05:27:16.079Z,13.40
2019-04-10T05:29:50.806Z,13.60
2019-04-10T05:32:25.579Z,14.00
2019-04-10T05:35:00.914Z,14.50
2019-04-10T05:37:36.539Z,14.80
2019-04-10T05:40:11.847Z,15.00
2019-04-10T05:42:49.456Z,15.30
2019-04-10T05:45:24.223Z,15.40
2019-04-10T05:47:59.057Z,15.80
2019-04-10T05:50:33.678Z,16.00
2019-04-10T05:53:08.476Z,16.10
2019-04-10T05:55:45.175Z,16.00
2019-04-10T05:58:20.116Z,15.90
2019-04-10T06:00:56.843Z,15.80
2019-04-10T06:03:32.360Z,15.80
2019-04-10T06:06:08.291Z,15.90
2019-04-10T06:08:43.566Z,15.80
2019-04-10T06:11:18.357Z,15.80
2019-04-10T06:13:53.015Z,15.80
2019-04-10T06:16:28.166Z,15.80
2019-04-10T06:19:03.936Z,15.80
2019-04-10T06:21:39.883Z,15.80
2019-04-10T06:24:14.814Z,16.00
2019-04-10T06:26:50.075Z,16.30
2019-04-10T06:29:24.954Z,16.80
2019-04-10T06:32:01.279Z,17.30
2019-04-10T06:34:36.409Z,17.60
2019-04-10T06:37:11.254Z,17.90
2019-04-10T06:39:46.489Z,18.30
2019-04-10T06:42:21.180Z,18.80
2019-04-10T06:44:56.430Z,19.20
2019-04-10T06:47:31.172Z,19.50
2019-04-10T06:50:07.524Z,19.60
2019-04-10T06:52:42.978Z,19.60
2019-04-10T06:55:18.578Z,19.60
2019-04-10T06:57:57.319Z,19.90
2019-04-10T07:00:30.683Z,19.80
2019-04-10T07:03:06.491Z,19.90
2019-04-10T07:05:53.168Z,20.10
2019-04-10T07:08:22.188Z,20.20
2019-04-10T07:11:02.017Z,19.70
2019-04-10T07:13:32.134Z,19.50
2019-04-10T07:16:08.464Z,19.30
2019-04-10T07:18:48.610Z,19.50
2019-04-10T07:21:20.233Z,19.20
2019-04-10T07:23:59.366Z,19.10
2019-04-10T07:26:39.432Z,19.20
2019-04-10T07:29:08.817Z,19.50
2019-04-10T07:31:44.673Z,19.80
2019-04-10T07:34:22.053Z,19.40
2019-04-10T07:36:56.122Z,19.20
2019-04-10T07:39:33.467Z,18.80
2019-04-10T07:42:07.322Z,18.40
2019-04-10T07:44:42.090Z,18.20
2019-04-10T07:47:17.438Z,18.30
2019-04-10T07:49:52.532Z,18.20
2019-04-10T07:52:27.579Z,18.40
2019-04-10T07:55:02.319Z,18.50
2019-04-10T07:57:38.689Z,18.40
2019-04-10T08:00:16.114Z,18.50
2019-04-10T08:02:51.133Z,18.90
2019-04-10T08:05:27.719Z,19.20
2019-04-10T08:08:03.042Z,19.10
2019-04-10T08:10:37.806Z,18.90
2019-04-10T08:13:12.540Z,19.10
2019-04-10T08:15:47.172Z,19.00
2019-04-10T08:18:23.175Z,19.20
2019-04-10T08:20:59.291Z,19.30
2019-04-10T08:23:34.098Z,19.10
2019-04-10T08:26:08.933Z,19.20
2019-04-10T08:28:43.602Z,19.00
2019-04-10T08:31:19.039Z,18.70
2019-04-10T08:33:54.723Z,18.90
2019-04-10T08:36:29.719Z,19.20
2019-04-10T08:39:06.808Z,19.30
2019-04-10T08:41:44.439Z,19.40
2019-04-10T08:44:19.983Z,19.50
2019-04-10T08:46:54.743Z,19.50
2019-04-10T08:49:30.430Z,19.50
2019-04-10T08:52:06.118Z,19.70
2019-04-10T08:54:40.915Z,19.70
2019-04-10T08:57:15.671Z,19.90
2019-04-10T08:59:50.412Z,20.20
2019-04-10T09:02:26.179Z,20.60
2019-04-10T09:05:01.488Z,20.70
2019-04-10T09:07:36.471Z,20.70
2019-04-10T09:10:12.295Z,21.30
2019-04-10T09:12:47.273Z,21.60
2019-04-10T09:15:22.106Z,21.60
2019-04-10T09:17:57.702Z,21.40
2019-04-10T09:20:33.567Z,21.10
2019-04-10T09:23:26.591Z,20.80
2019-04-10T09:25:47.360Z,20.70
2019-04-10T09:28:22.348Z,20.60
2019-04-10T09:30:57.390Z,20.40
2019-04-10T09:33:32.443Z,20.60
2019-04-10T09:36:07.283Z,20.80
2019-04-10T09:38:43.880Z,20.70
2019-04-10T09:41:20.160Z,20.60
2019-04-10T09:43:54.841Z,20.60
2019-04-10T09:46:29.642Z,20.50
2019-04-10T09:49:05.502Z,20.60
2019-04-10T09:51:40.717Z,20.80
2019-04-10T09:54:15.878Z,20.60
2019-04-10T09:56:51.285Z,20.60
2019-04-10T09:59:35.441Z,20.90
2019-04-10T10:02:03.966Z,20.60
2019-04-10T10:04:39.783Z,20.40
2019-04-10T10:07:15.102Z,20.60
2019-04-10T10:09:49.870Z,20.70
2019-04-10T10:12:25.620Z,20.60
2019-04-10T10:15:00.253Z,20.80
2019-04-10T10:17:35.019Z,20.80
2019-04-10T10:20:11.459Z,20.70
2019-04-10T10:22:47.206Z,20.50
2019-04-10T10:25:23.456Z,20.60
2019-04-10T10:27:58.587Z,20.70
2019-04-10T10:30:33.688Z,21.00
2019-04-10T10:33:09.734Z,21.30
2019-04-10T10:35:44.539Z,21.20
2019-04-10T10:38:19.342Z,21.50
2019-04-10T10:40:54.851Z,21.80
2019-04-10T10:43:29.773Z,22.00
2019-04-10T10:46:04.536Z,22.20
2019-04-10T10:48:39.986Z,22.00
2019-04-10T10:51:15.410Z,22.00
2019-04-10T10:53:50.074Z,21.90
2019-04-10T10:56:29.076Z,21.60
2019-04-10T10:59:05.606Z,21.50
2019-04-10T11:01:42.213Z,21.30
2019-04-10T11:04:21.739Z,21.20
2019-04-10T11:07:00.989Z,21.10
2019-04-10T11:09:37.054Z,21.30
2019-04-10T11:12:13.663Z,21.20
2019-04-10T11:14:49.991Z,21.40
2019-04-10T11:17:28.069Z,21.50
2019-04-10T11:20:08.099Z,21.50
2019-04-10T11:22:44.946Z,21.40
2019-04-10T11:25:20.219Z,21.40
2019-04-10T11:27:56.474Z,21.10
2019-04-10T11:30:50.836Z,21.20
2019-04-10T11:33:26.335Z,21.30
2019-04-10T11:36:02.054Z,21.30
2019-04-10T11:38:37.475Z,21.30
2019-04-10T11:41:14.820Z,21.40
2019-04-10T11:43:52.626Z,21.50
2019-04-10T11:46:30.997Z,21.70
2019-04-10T11:49:04.879Z,22.00
2019-04-10T11:51:39.925Z,22.20
2019-04-10T11:54:16.929Z,22.40
2019-04-10T11:56:55.017Z,22.40
2019-04-10T11:59:28.949Z,22.10
2019-04-10T12:02:06.472Z,21.90
2019-04-10T12:04:50.440Z,21.90
2019-04-10T12:12:29.960Z,21.50
2019-04-10T12:15:08.003Z,21.50
2019-04-10T12:17:44.371Z,21.40
2019-04-10T12:20:19.241Z,21.70
2019-04-10T12:22:56.611Z,22.00
2019-04-10T12:25:31.433Z,22.10
2019-04-10T12:28:06.415Z,22.00
2019-04-10T12:30:41.679Z,21.70
2019-04-10T12:33:19.569Z,21.50
2019-04-10T12:35:54.329Z,21.40
2019-04-10T12:38:29.823Z,21.50
2019-04-10T12:41:04.624Z,21.60
2019-04-10T12:43:39.684Z,21.50
2019-04-10T12:46:14.938Z,21.50
2019-04-10T12:48:50.689Z,21.80
2019-04-10T12:51:25.693Z,21.70
2019-04-10T12:54:01.140Z,21.40
2019-04-10T12:56:35.923Z,21.30
2019-04-10T12:59:11.139Z,21.30
2019-04-10T13:01:47.038Z,21.40
2019-04-10T13:04:22.352Z,21.40
2019-04-10T13:06:57.547Z,21.40
2019-04-10T13:09:32.231Z,21.30
2019-04-10T13:12:07.065Z,21.20
2019-04-10T13:14:41.728Z,21.00
2019-04-10T13:17:16.558Z,21.10
2019-04-10T13:19:51.460Z,21.20
2019-04-10T13:22:26.504Z,21.10
2019-04-10T13:25:01.835Z,21.00
2019-04-10T13:27:36.901Z,21.10
2019-04-10T13:30:14.651Z,21.20
2019-04-10T13:32:50.097Z,21.10
2019-04-10T13:35:24.892Z,21.20
2019-04-10T13:37:59.665Z,21.30
2019-04-10T13:40:35.255Z,21.30
2019-04-10T13:43:11.736Z,21.30
2019-04-10T13:45:46.649Z,21.40
2019-04-10T13:48:21.571Z,21.30
2019-04-10T13:50:57.109Z,21.40
2019-04-10T13:53:32.214Z,21.40
2019-04-10T13:56:07.113Z,21.30
2019-04-10T13:58:42.601Z,21.30
2019-04-10T14:01:19.625Z,21.40
2019-04-10T14:03:54.541Z,21.40
2019-04-10T14:06:29.686Z,21.30
2019-04-10T14:09:25.246Z,21.10
2019-04-10T14:11:43.961Z,21.00
2019-04-10T14:14:18.725Z,21.00
2019-04-10T14:16:53.529Z,21.00
2019-04-10T14:19:29.853Z,21.20
2019-04-10T14:22:05.241Z,21.30
2019-04-10T14:24:44.780Z,21.20
2019-04-10T14:27:18.323Z,21.00
2019-04-10T14:29:53.101Z,21.00
2019-04-10T14:32:35.620Z,21.00
2019-04-10T14:35:11.410Z,21.00
2019-04-10T14:37:46.490Z,20.80
2019-04-10T14:40:22.139Z,20.90
2019-04-10T14:42:57.698Z,21.00
2019-04-10T14:45:33.231Z,21.00
2019-04-10T14:48:08.209Z,20.90
2019-04-10T14:50:44.124Z,21.00
2019-04-10T14:53:19.309Z,21.10
2019-04-10T14:55:53.994Z,21.00
2019-04-10T14:58:30.651Z,21.10
2019-04-10T15:01:08.435Z,21.10
2019-04-10T15:03:42.682Z,21.20
2019-04-10T15:06:20.129Z,21.30
2019-04-10T15:08:54.199Z,21.40
2019-04-10T15:11:28.902Z,21.40
2019-04-10T15:14:03.810Z,21.50
2019-04-10T15:16:39.117Z,21.30
2019-04-10T15:19:13.834Z,21.20
2019-04-10T15:21:49.244Z,21.20
2019-04-10T15:24:23.901Z,21.00
2019-04-10T15:26:58.600Z,20.80
2019-04-10T15:29:33.388Z,20.60
2019-04-10T15:32:08.489Z,20.50
2019-04-10T15:34:43.781Z,20.50
2019-04-10T15:37:18.529Z,20.50
2019-04-10T15:39:53.963Z,20.40
2019-04-10T15:42:28.906Z,20.40
2019-04-10T15:45:07.276Z,20.50
2019-04-10T15:47:51.585Z,20.40
2019-04-10T15:50:19.512Z,20.30
2019-04-10T15:52:54.260Z,20.30
2019-04-10T15:55:29.955Z,20.20
2019-04-10T15:58:06.530Z,20.20
2019-04-10T16:00:41.464Z,20.00
2019-04-10T16:03:16.153Z,19.80
2019-04-10T16:05:50.945Z,19.70
2019-04-10T16:08:26.139Z,19.70
2019-04-10T16:11:05.626Z,19.50
2019-04-10T16:13:42.092Z,19.40
2019-04-10T16:16:40.314Z,19.30
2019-04-10T16:19:20.406Z,19.30
2019-04-10T16:21:56.329Z,19.30
2019-04-10T16:24:31.195Z,19.30
2019-04-10T16:27:07.650Z,19.40
2019-04-10T16:29:42.830Z,19.40
2019-04-10T16:32:18.831Z,19.30
2019-04-10T16:34:54.545Z,19.20
2019-04-10T16:37:31.379Z,19.20
2019-04-10T16:40:10.020Z,19.20
2019-04-10T16:42:44.186Z,19.10
2019-04-10T16:45:19.165Z,19.00
2019-04-10T16:47:54.551Z,18.80
2019-04-10T16:50:30.012Z,18.70
2019-04-10T16:53:05.481Z,18.60
2019-04-10T16:55:41.007Z,18.40
2019-04-10T16:58:16.023Z,18.40
2019-04-10T17:00:52.195Z,18.40
2019-04-10T17:03:29.403Z,18.30
2019-04-10T17:06:04.484Z,18.30
2019-04-10T17:08:40.459Z,18.20
2019-04-10T17:11:16.800Z,18.10
2019-04-10T17:13:51.651Z,18.10
2019-04-10T17:16:27.585Z,18.00
2019-04-10T17:19:03.479Z,18.00
2019-04-10T17:21:38.487Z,18.10
2019-04-10T17:24:13.425Z,18.00
2019-04-10T17:26:48.782Z,17.70
2019-04-10T17:29:25.025Z,17.40
2019-04-10T17:32:02.640Z,17.20
2019-04-10T17:34:38.867Z,17.00
2019-04-10T17:37:13.772Z,16.90
2019-04-10T17:39:51.383Z,16.60
2019-04-10T17:42:26.289Z,16.40
2019-04-10T17:45:04.554Z,16.00
2019-04-10T17:47:38.792Z,15.80
2019-04-10T17:50:16.235Z,15.50
2019-04-10T17:52:51.304Z,15.20
2019-04-10T17:55:27.334Z,15.10
2019-04-10T17:58:03.200Z,15.00
2019-04-10T18:00:39.963Z,14.80
2019-04-10T18:03:18.375Z,14.70
2019-04-10T18:05:52.989Z,14.50
2019-04-10T18:08:28.752Z,14.50
2019-04-10T18:11:05.803Z,14.50
2019-04-10T18:13:40.784Z,14.50
2019-04-10T18:16:16.098Z,14.50
2019-04-10T18:18:51.728Z,14.40
2019-04-10T18:21:26.680Z,14.40
2019-04-10T18:24:02.067Z,14.40
2019-04-10T18:26:39.457Z,14.20
2019-04-10T18:29:17.633Z,14.10
2019-04-10T18:34:36.949Z,14.00
2019-04-10T18:37:14.636Z,13.60
2019-04-10T18:39:48.621Z,13.50
2019-04-10T18:42:24.758Z,13.40
2019-04-10T18:44:59.571Z,13.40
2019-04-10T18:47:36.414Z,13.40
2019-04-10T18:50:11.981Z,13.40
2019-04-10T18:52:47.707Z,13.40
2019-04-10T18:55:22.619Z,13.50
2019-04-10T18:57:57.420Z,13.60
2019-04-10T19:00:36.913Z,13.60
2019-04-10T19:03:13.193Z,13.60
2019-04-10T19:05:49.596Z,13.60
2019-04-10T19:08:28.141Z,13.60
2019-04-10T19:11:15.313Z,13.60
2019-04-10T19:13:40.171Z,13.60
2019-04-10T19:16:15.781Z,13.60
2019-04-10T19:18:50.574Z,13.70
2019-04-10T19:21:25.366Z,13.80
2019-04-10T19:23:59.955Z,13.90
2019-04-10T19:26:36.222Z,13.90
2019-04-10T19:29:10.993Z,13.80
2019-04-10T19:31:47.726Z,13.90
2019-04-10T19:34:23.453Z,13.80
2019-04-10T19:36:58.425Z,13.80
2019-04-10T19:39:34.130Z,13.80
2019-04-10T19:42:11.224Z,13.90
2019-04-10T19:44:46.043Z,14.00
2019-04-10T19:47:22.041Z,14.10
2019-04-10T19:49:57.107Z,14.10
2019-04-10T19:52:32.842Z,14.10
2019-04-10T19:55:07.585Z,13.90
2019-04-10T19:57:42.311Z,13.40
2019-04-10T20:00:20.018Z,13.20
2019-04-10T20:02:55.255Z,13.20
2019-04-10T20:05:30.093Z,13.10
2019-04-10T20:08:05.201Z,13.00
2019-04-10T20:10:39.888Z,12.90
2019-04-10T20:13:14.614Z,12.90
2019-04-10T20:15:49.392Z,13.00
2019-04-10T20:18:24.702Z,13.00
2019-04-10T20:20:59.690Z,13.10
2019-04-10T20:23:34.467Z,13.20
2019-04-10T20:26:10.353Z,13.10
2019-04-10T20:28:45.454Z,13.10
2019-04-10T20:31:27.501Z,13.20
2019-04-10T20:34:03.260Z,13.20
2019-04-10T20:36:38.896Z,13.30
2019-04-10T20:39:17.298Z,13.40
2019-04-10T20:41:55.492Z,13.50
2019-04-10T20:44:30.103Z,13.50
2019-04-10T20:47:04.871Z,13.50
2019-04-10T20:49:40.559Z,13.60
2019-04-10T20:52:15.208Z,13.50
2019-04-10T20:54:49.907Z,13.50
2019-04-10T20:57:25.635Z,13.60
2019-04-10T21:00:01.708Z,13.60
2019-04-10T21:02:36.644Z,13.60
2019-04-10T21:05:13.480Z,13.60
2019-04-10T21:07:48.098Z,13.50
2019-04-10T21:10:23.507Z,13.40
2019-04-10T21:12:59.637Z,13.40
2019-04-10T21:15:35.443Z,13.40
2019-04-10T21:18:11.080Z,13.40
2019-04-10T21:20:45.844Z,13.40
2019-04-10T21:23:21.652Z,13.40
2019-04-10T21:25:57.430Z,13.30
2019-04-10T21:28:32.255Z,13.20
2019-04-10T21:31:14.638Z,13.20
2019-04-10T21:34:01.193Z,13.20
2019-04-10T21:36:37.083Z,13.20
2019-04-10T21:39:12.374Z,13.20
2019-04-10T21:41:47.327Z,13.20
2019-04-10T21:44:22.026Z,13.10
2019-04-10T21:46:57.168Z,13.10
2019-04-10T21:49:32.335Z,13.10
2019-04-10T21:52:07.766Z,13.10
2019-04-10T21:54:49.776Z,13.20
2019-04-10T21:57:20.308Z,13.10
2019-04-10T21:59:55.999Z,13.10
2019-04-10T22:02:31.627Z,13.10
2019-04-10T22:05:08.173Z,13.10
2019-04-10T22:07:48.261Z,13.10
2019-04-10T22:10:30.072Z,13.10
2019-04-10T22:13:07.733Z,13.10
2019-04-10T22:15:46.964Z,13.10
2019-04-10T22:18:23.650Z,13.10
2019-04-10T22:21:00.524Z,13.00
2019-04-10T22:23:37.038Z,13.00
2019-04-10T22:26:11.795Z,12.90
2019-04-10T22:28:47.559Z,13.00
2019-04-10T22:31:23.689Z,12.90
2019-04-10T22:34:00.760Z,13.00
2019-04-10T22:36:37.331Z,13.10
2019-04-10T22:39:14.831Z,13.00
2019-04-10T22:41:50.432Z,13.10
2019-04-10T22:44:35.878Z,13.10
2019-04-10T22:47:02.903Z,13.00
2019-04-10T22:49:45.099Z,13.00
2019-04-10T22:52:14.122Z,13.00
2019-04-10T22:54:48.782Z,13.10
2019-04-10T22:57:25.181Z,13.10
2019-04-10T22:59:59.906Z,13.10
2019-04-10T23:02:35.375Z,13.20
2019-04-10T23:05:10.302Z,13.20
2019-04-10T23:07:45.132Z,13.20
2019-04-10T23:10:21.129Z,13.10
2019-04-10T23:13:01.443Z,13.10
2019-04-10T23:15:33.621Z,13.10
2019-04-10T23:18:09.544Z,13.00
2019-04-10T23:20:45.582Z,12.90
2019-04-10T23:23:21.058Z,13.00
2019-04-10T23:25:56.428Z,13.10
2019-04-10T23:28:31.569Z,13.10
2019-04-10T23:31:07.583Z,13.20
2019-04-10T23:33:42.406Z,13.20
2019-04-10T23:36:18.062Z,13.00
2019-04-10T23:38:52.799Z,13.00
2019-04-10T23:41:27.488Z,13.00
2019-04-10T23:44:04.113Z,13.00
2019-04-10T23:46:38.871Z,13.00
2019-04-10T23:49:13.741Z,13.00
2019-04-10T23:51:50.026Z,13.00
2019-04-10T23:54:27.125Z,13.00
2019-04-10T23:57:03.577Z,13.00
2019-04-10T23:59:39.929Z,13.10
